Service Notice

This observation station is currently unavailable due to a loss of power in the area.

Work to restore the service will be undertaken as soon as it is safe to do so.

The Bureau's national resources allow our meteorologists to produce accurate and timely forecasts and warnings in areas without observations, including for the locations around this station site. Search for forcast by town, city, post code or lat/lon here or find the location on the MetEye map.

Latest Weather Observations for Cabramurra

IDN60801

Issued at 5:33 pm EDT Monday 17 January 2022 (issued every 10 minutes, with the page automatically refreshed every 10 minutes)

About weather observations | Map of weather stations | Latest weather observations for NSW | Other Formats
Station Details ID: 072161 Name: CABRAMURRA SMHEA AWS Lat: -35.94 Lon: 148.38 Height: 1482.4 m
Data from the previous 72 hours. | See also: Recent months at Cabramurra
Date/Time
EDT
Temp
°C
App
Temp
°C
Dew
Point
°C
Rel
Hum
%
Delta-T
°C
Wind Press
QNH
hPa
Press
MSL
hPa
Rain since
9am
mm
Dir  Spd
km/h
Gust
km/h
Spd
kts
Gust
kts
17/05:30pm 13.4 10.9 13.4 100 0.0 WSW 19 26 10 14 - - 8.0
17/05:00pm 13.3 10.7 13.3 100 0.0 W 19 33 10 18 - - 7.6
17/04:30pm 13.9 10.6 13.9 100 0.0 W 24 37 13 20 - - 6.8
17/04:20pm 13.9 9.4 13.9 100 0.0 WNW 30 48 16 26 - - 5.2
17/04:00pm 14.6 10.8 14.6 100 0.0 WNW 28 41 15 22 - - 1.8
17/03:30pm 15.6 12.3 14.1 91 0.9 WNW 24 35 13 19 - - 0.2
17/03:00pm 16.1 13.2 13.0 82 1.9 WNW 20 30 11 16 - - 0.2
17/02:32pm 16.3 12.0 13.2 82 1.9 WNW 28 46 15 25 - - 0.2
17/02:30pm 16.3 11.6 13.2 82 1.9 WNW 30 46 16 25 - - 0.2
17/02:00pm 16.9 13.6 14.9 88 1.2 WNW 26 39 14 21 - - 0.2
17/01:30pm 16.5 12.6 13.4 82 1.9 WNW 26 43 14 23 - - 0.2
17/01:00pm 17.5 15.5 14.0 80 2.1 NW 17 22 9 12 - - 0.2
17/12:30pm 16.6 13.7 12.4 76 2.5 WNW 19 24 10 13 - - 0.0
17/12:00pm 17.5 14.6 11.1 66 3.7 WNW 17 30 9 16 - - 0.0
17/11:30am 17.6 13.5 10.0 61 4.3 W 22 32 12 17 - - 0.0
17/11:00am 18.5 13.9 9.6 56 5.1 WNW 24 35 13 19 - - 0.0
17/10:30am 18.3 14.0 9.4 56 5.0 WNW 22 30 12 16 - - 0.0
17/10:00am 18.4 14.5 7.2 48 6.1 WNW 17 24 9 13 - - 0.0
17/09:30am 18.8 14.6 7.6 48 6.2 WNW 19 24 10 13 - - 0.0
17/09:00am 18.4 15.8 7.8 50 5.8 NNW 11 17 6 9 - - 0.0
17/08:30am 18.5 15.2 6.4 45 6.5 NNW 13 15 7 8 - - 0.0
17/08:00am 18.9 16.8 5.7 42 7.0 N 6 9 3 5 - - 0.0
17/07:30am 17.3 14.2 5.6 46 6.1 N 11 15 6 8 - - 0.0
17/07:00am 17.3 13.8 5.6 46 6.1 N 13 15 7 8 - - 0.0
17/06:30am 16.9 14.2 5.5 47 5.9 N 9 11 5 6 - - 0.0
17/06:00am 16.6 13.9 5.6 48 5.7 N 9 13 5 7 - - 0.0
17/05:30am 16.5 13.5 6.1 50 5.5 NNW 11 13 6 7 - - 0.0
17/05:00am 16.6 14.0 5.9 49 5.6 N 9 9 5 5 - - 0.0
17/04:30am 16.2 13.2 6.1 51 5.3 NNW 11 13 6 7 - - 0.0
17/04:00am 16.7 14.5 6.2 50 5.5 N 7 9 4 5 - - 0.0
17/03:30am 16.5 15.7 6.3 51 5.4 CALM 0 0 0 0 - - 0.0
17/03:00am 16.3 15.7 7.5 56 4.8 CALM 0 0 0 0 - - 0.0
17/02:30am 16.0 15.5 7.7 58 4.5 CALM 0 0 0 0 - - 0.0
17/02:00am 16.5 16.1 8.2 58 4.6 CALM 0 0 0 0 - - 0.0
17/01:30am 15.9 15.7 8.9 63 3.9 CALM 0 0 0 0 - - 0.0
17/01:00am 16.8 16.0 8.2 57 4.7 SSE 2 7 1 4 - - 0.0
17/12:30am 16.0 15.8 9.0 63 3.9 CALM 0 6 0 3 - - 0.0
17/12:00am 16.2 14.0 7.9 58 4.5 SSE 9 9 5 5 - - 0.0
 
Date/Time
EDT
Temp
°C
App
Temp
°C
Dew
Point
°C
Rel
Hum
%
Delta-T
°C
Wind Press
QNH
hPa
Press
MSL
hPa
Rain since
9am
mm
Dir  Spd
km/h
Gust
km/h
Spd
kts
Gust
kts
16/11:30pm 16.6 14.6 7.0 53 5.1 E 7 9 4 5 - - 0.0
16/11:00pm 17.4 15.4 7.2 51 5.5 ESE 7 9 4 5 - - 0.0
16/10:30pm 17.5 16.9 7.5 52 5.4 CALM 0 0 0 0 - - 0.0
16/10:00pm 17.6 17.0 7.6 52 5.5 CALM 0 0 0 0 - - 0.0
16/09:30pm 17.5 16.9 7.3 51 5.5 CALM 0 0 0 0 - - 0.0
16/09:00pm 17.5 16.5 7.5 52 5.4 SSE 2 6 1 3 - - 0.0
16/08:30pm 17.3 15.6 8.2 55 5.0 W 7 11 4 6 - - 0.0
16/08:00pm 18.8 18.1 8.7 52 5.7 WSW 2 11 1 6 - - 0.0
16/07:30pm 19.5 17.6 9.1 51 5.9 W 9 13 5 7 - - 0.0
16/07:00pm 20.9 17.7 6.8 40 7.7 W 13 19 7 10 - - 0.0
16/06:30pm 20.8 17.2 8.4 45 7.0 W 17 22 9 12 - - 0.0
16/06:00pm 21.2 18.5 8.8 45 7.0 WSW 13 22 7 12 - - 0.0
16/05:30pm 21.4 18.4 9.3 46 6.9 W 15 22 8 12 - - 0.0
16/05:00pm 21.3 17.7 9.9 48 6.6 WNW 19 28 10 15 - - 0.0
16/04:30pm 20.9 18.6 10.4 51 6.1 WSW 13 20 7 11 - - 0.0
16/04:00pm 20.4 17.0 9.3 49 6.3 W 17 28 9 15 - - 0.0
16/03:30pm 20.6 16.8 9.8 50 6.2 W 20 30 11 16 - - 0.0
16/03:00pm 20.4 16.1 7.1 42 7.3 W 19 28 10 15 - - 0.0
16/02:30pm 20.5 16.9 6.8 41 7.5 W 15 22 8 12 - - 0.0
16/02:00pm 20.1 15.3 5.4 38 7.8 WNW 20 32 11 17 - - 0.0
16/01:30pm 19.5 15.0 6.9 44 6.9 WNW 20 35 11 19 - - 0.0
16/01:00pm 19.6 15.6 9.2 51 5.9 W 20 28 11 15 - - 0.0
16/12:30pm 19.5 16.5 9.4 52 5.8 WSW 15 26 8 14 - - 0.0
16/12:00pm 19.1 15.1 8.4 50 6.0 W 19 26 10 14 - - 0.0
16/11:30am 18.3 14.1 5.8 44 6.6 WNW 17 26 9 14 - - 0.0
16/11:00am 18.2 13.6 5.8 44 6.6 WNW 19 28 10 15 - - 0.0
16/10:30am 17.7 14.5 9.8 60 4.5 WNW 17 26 9 14 - - 0.0
16/10:00am 17.6 16.1 11.9 69 3.4 WNW 11 15 6 8 - - 0.0
16/09:30am 17.1 14.8 9.0 59 4.5 NW 11 15 6 8 - - 0.0
16/09:00am 16.7 14.9 11.0 69 3.3 NW 11 15 6 8 - - 1.0
16/08:30am 16.5 14.9 10.1 66 3.6 NW 9 13 5 7 - - 1.0
16/08:00am 16.1 16.1 9.8 66 3.6 CALM 0 0 0 0 - - 1.0
16/07:30am 15.2 14.1 10.8 75 2.5 W 7 11 4 6 - - 1.0
16/07:00am 14.7 13.7 10.9 78 2.2 W 7 11 4 6 - - 1.0
16/06:30am 13.9 12.6 11.4 85 1.4 W 9 11 5 6 - - 1.0
16/06:00am 14.1 13.4 12.0 87 1.2 W 7 15 4 8 - - 1.0
16/05:30am 14.3 12.9 13.3 94 0.6 W 13 17 7 9 - - 1.0
16/05:00am 14.0 13.2 14.0 100 0.0 WNW 11 15 6 8 - - 1.0
16/04:30am 14.3 13.6 14.3 100 0.0 W 11 13 6 7 - - 1.0
16/04:00am 14.3 14.0 14.3 100 0.0 WNW 9 9 5 5 - - 1.0
16/03:30am 14.5 14.6 14.5 100 0.0 NW 7 9 4 5 - - 1.0
16/03:00am 14.6 15.7 14.6 100 0.0 NNW 2 7 1 4 - - 1.0
16/02:30am 14.7 15.0 14.5 99 0.1 N 6 9 3 5 - - 1.0
16/02:00am 14.9 16.4 14.7 99 0.1 CALM 0 0 0 0 - - 1.0
16/01:30am 14.9 16.4 14.7 99 0.1 CALM 0 0 0 0 - - 1.0
16/01:00am 14.9 15.7 14.7 99 0.1 SSW 4 7 2 4 - - 1.0
16/12:30am 15.2 14.4 15.0 99 0.1 SW 13 13 7 7 - - 1.0
16/12:00am 15.1 14.1 14.5 96 0.4 SW 13 15 7 8 - - 1.0
 
Date/Time
EDT
Temp
°C
App
Temp
°C
Dew
Point
°C
Rel
Hum
%
Delta-T
°C
Wind Press
QNH
hPa
Press
MSL
hPa
Rain since
9am
mm
Dir  Spd
km/h
Gust
km/h
Spd
kts
Gust
kts
15/11:30pm 15.0 15.1 14.5 97 0.3 S 7 11 4 6 - - 1.0
15/11:00pm 15.5 14.9 14.7 95 0.5 SW 11 15 6 8 - - 1.0
15/10:30pm 15.6 14.7 14.8 95 0.5 WSW 13 17 7 9 - - 1.0
15/10:00pm 15.5 15.3 14.7 95 0.5 WSW 9 15 5 8 - - 1.0
15/09:30pm 15.9 17.3 14.3 90 1.0 CALM 0 0 0 0 - - 1.0
15/09:00pm 16.2 17.2 14.2 88 1.2 W 2 7 1 4 - - 1.0
15/08:30pm 16.6 17.9 14.1 85 1.5 CALM 0 0 0 0 - - 1.0
15/08:00pm 17.8 18.0 14.7 82 1.9 W 7 11 4 6 - - 1.0
15/07:30pm 18.3 17.4 13.8 75 2.8 W 11 17 6 9 - - 1.0
15/07:00pm 18.7 17.4 13.6 72 3.1 W 13 19 7 10 - - 1.0
15/06:30pm 19.2 18.0 14.0 72 3.2 W 13 20 7 11 - - 1.0
15/06:00pm 19.6 19.2 14.2 71 3.3 W 9 15 5 8 - - 1.0
15/05:30pm 19.6 17.5 14.6 73 3.1 W 19 24 10 13 - - 1.0
15/05:00pm 19.9 17.4 14.0 69 3.6 W 20 28 11 15 - - 1.0
15/04:30pm 19.3 17.0 13.0 67 3.8 WNW 17 26 9 14 - - 1.0
15/04:00pm 19.3 16.7 13.7 70 3.4 W 20 39 11 21 - - 1.0
15/03:30pm 19.0 17.0 14.9 77 2.6 W 19 28 10 15 - - 1.0
15/03:00pm 17.3 14.7 15.8 91 0.9 WNW 24 35 13 19 - - 1.0
15/02:30pm 16.1 14.0 16.1 100 0.0 WNW 22 32 12 17 - - 1.0
15/02:00pm 15.8 14.5 15.8 100 0.0 NW 17 30 9 16 - - 1.0
15/01:30pm 15.1 13.5 15.1 100 0.0 NW 17 24 9 13 - - 1.0
15/01:00pm 15.5 13.5 15.5 100 0.0 NW 20 30 11 16 - - 1.0
15/12:30pm 14.2 11.4 14.2 100 0.0 NNW 22 33 12 18 - - 0.2
15/12:00pm 14.2 11.0 14.2 100 0.0 NNW 24 39 13 21 - - 0.0
15/11:30am 14.3 11.5 14.3 100 0.0 NNW 22 30 12 16 - - 0.0
15/11:00am 14.2 11.7 14.2 100 0.0 N 20 28 11 15 - - 0.0
15/10:30am 14.0 10.7 14.0 100 0.0 N 24 32 13 17 - - 0.0
15/10:00am 13.9 10.6 13.9 100 0.0 N 24 33 13 18 - - 0.0
15/09:30am 13.7 11.1 13.7 100 0.0 N 20 30 11 16 - - 0.0
15/09:00am 13.4 10.7 13.4 100 0.0 N 20 28 11 15 - - 72.4
15/08:30am 13.2 11.4 13.2 100 0.0 N 15 22 8 12 - - 70.8
15/08:00am 11.8 10.3 11.8 100 0.0 W 11 24 6 13 - - 70.8
15/07:30am 13.0 10.7 13.0 100 0.0 NNE 17 24 9 13 - - 70.8
15/07:00am 12.2 9.7 12.2 100 0.0 SW 17 26 9 14 - - 70.6
15/06:30am 12.1 11.4 11.9 99 0.1 E 7 17 4 9 - - 65.6
15/06:00am 11.1 8.2 10.9 99 0.1 NNW 17 24 9 13 - - 55.8
15/05:30am 12.9 10.2 12.9 100 0.0 NNE 19 32 10 17 - - 42.2
15/05:00am 13.2 8.9 13.2 100 0.0 NNE 28 44 15 24 - - 42.2
15/04:58am 13.2 8.9 13.2 100 0.0 NNE 28 44 15 24 - - 42.2
15/04:30am 13.6 11.4 13.4 99 0.1 NNE 17 24 9 13 - - 42.2
15/04:00am 12.9 11.7 12.7 99 0.1 NE 11 20 6 11 - - 42.2
15/03:30am 12.5 10.4 12.3 99 0.1 SE 15 19 8 10 - - 42.0
15/03:00am 11.3 8.5 11.3 100 0.0 SSE 17 24 9 13 - - 41.8
15/02:30am 11.2 7.0 11.2 100 0.0 SW 24 43 13 23 - - 41.2
15/02:24am 10.9 5.5 10.9 100 0.0 SW 30 57 16 31 - - 40.6
15/02:07am 10.7 3.5 10.7 100 0.0 WSW 39 74 21 40 - - 32.4
15/02:00am 11.1 4.4 11.1 100 0.0 WSW 37 65 20 35 - - 26.6
15/01:43am 12.7 6.9 12.7 100 0.0 W 35 61 19 33 - - 15.4
15/01:42am 13.0 7.7 13.0 100 0.0 WNW 33 61 18 33 - - 15.2
15/01:39am 13.4 7.8 13.4 100 0.0 NW 35 61 19 33 - - 14.8
15/01:35am 14.9 10.4 14.9 100 0.0 NNW 32 52 17 28 - - 14.2
15/01:30am 14.9 10.8 14.9 100 0.0 NNW 30 46 16 25 - - 14.0
15/01:00am 15.2 11.6 15.2 100 0.0 N 28 43 15 23 - - 13.8
15/12:40am 16.2 12.1 14.9 92 0.8 N 30 50 16 27 - - 13.8
15/12:30am 16.2 13.5 15.7 97 0.3 N 24 39 13 21 - - 13.8
15/12:00am 16.4 12.7 15.9 97 0.3 NNE 30 43 16 23 - - 13.8
 
Date/Time
EDT
Temp
°C
App
Temp
°C
Dew
Point
°C
Rel
Hum
%
Delta-T
°C
Wind Press
QNH
hPa
Press
MSL
hPa
Rain since
9am
mm
Dir  Spd
km/h
Gust
km/h
Spd
kts
Gust
kts
14/11:30pm 16.4 12.3 15.9 97 0.3 NNE 32 48 17 26 - - 13.8
14/11:23pm 16.4 13.0 15.8 96 0.4 NNE 28 48 15 26 - - 13.8
14/11:00pm 16.2 13.5 15.6 96 0.4 NNE 24 35 13 19 - - 13.8
14/10:30pm 16.2 12.9 15.1 93 0.7 NNE 26 37 14 20 - - 13.8
14/10:00pm 15.9 13.8 15.1 95 0.5 ENE 20 32 11 17 - - 13.8
14/09:30pm 15.7 15.4 15.5 99 0.1 E 11 17 6 9 - - 13.8
14/09:00pm 15.6 14.5 15.4 99 0.1 NNE 15 19 8 10 - - 13.6
14/08:30pm 16.8 15.2 15.0 89 1.1 N 17 24 9 13 - - 10.2
14/08:00pm 17.0 15.8 15.0 88 1.2 NNE 15 20 8 11 - - 10.2
14/07:30pm 17.0 15.7 14.8 87 1.4 NNW 15 20 8 11 - - 10.2
14/07:00pm 17.1 15.1 14.0 82 1.9 N 17 26 9 14 - - 10.2
14/06:30pm 18.7 17.2 15.2 80 2.2 NNW 17 26 9 14 - - 10.2
14/06:00pm 18.7 16.1 15.0 79 2.3 N 22 32 12 17 - - 10.2

Other formats

Comma delimited format used in spreadsheet applications
http://www.bom.gov.au/fwo/IDN60801/IDN60801.95916.axf

JavaScript Object Notation format (JSON) in row-major order
http://www.bom.gov.au/fwo/IDN60801/IDN60801.95916.json

Data quality

Most of these data are generated automatically and are frequently updated. Quality checks on data are not normally performed. It is possible for incorrect values to appear. Refer to information at About Latest Weather Observations and please check the disclaimer before using these data.